createdAt,value
2023-02-02T00:00:52.537Z,2.44
2023-02-02T00:05:07.716Z,2.47
2023-02-02T00:09:11.293Z,2.49
2023-02-02T00:13:14.272Z,2.68
2023-02-02T00:17:16.296Z,2.54
2023-02-02T00:21:18.251Z,2.62
2023-02-02T00:25:20.016Z,2.64
2023-02-02T00:29:27.824Z,2.67
2023-02-02T00:33:29.854Z,2.59
2023-02-02T00:37:31.985Z,2.67
2023-02-02T00:41:33.934Z,2.74
2023-02-02T00:45:35.845Z,2.61
2023-02-02T00:49:37.574Z,2.47
2023-02-02T00:53:39.511Z,2.60
2023-02-02T00:57:44.287Z,2.59
2023-02-02T01:01:46.869Z,2.54
2023-02-02T01:05:51.305Z,2.62
2023-02-02T01:09:53.439Z,2.58
2023-02-02T01:13:55.440Z,2.55
2023-02-02T01:17:57.878Z,2.37
2023-02-02T01:22:00.118Z,2.09
2023-02-02T01:26:05.684Z,1.87
2023-02-02T01:30:08.689Z,1.56
2023-02-02T01:34:10.665Z,1.28
2023-02-02T01:38:12.427Z,0.97
2023-02-02T01:42:21.276Z,0.87
2023-02-02T01:46:32.074Z,0.96
2023-02-02T01:50:35.428Z,0.97
2023-02-02T01:54:50.228Z,0.98
2023-02-02T01:58:52.856Z,0.98
2023-02-02T02:03:04.347Z,0.88
2023-02-02T02:07:07.246Z,1.05
2023-02-02T02:11:09.334Z,0.87
2023-02-02T02:15:29.722Z,0.89
2023-02-02T02:20:11.082Z,0.84
2023-02-02T02:25:07.206Z,1.00
2023-02-02T02:29:47.889Z,1.06
2023-02-02T02:34:16.692Z,1.15
2023-02-02T02:38:41.011Z,1.26
2023-02-02T02:42:47.440Z,1.41
2023-02-02T02:46:50.987Z,1.43
2023-02-02T02:50:53.640Z,1.54
2023-02-02T02:54:57.689Z,1.61
2023-02-02T02:59:11.924Z,1.73
2023-02-02T03:03:28.070Z,1.71
2023-02-02T03:07:39.347Z,1.75
2023-02-02T03:11:41.575Z,1.90
2023-02-02T03:15:45.125Z,1.83
2023-02-02T03:19:47.157Z,1.80
2023-02-02T03:23:49.161Z,1.91
2023-02-02T03:27:51.682Z,1.91
2023-02-02T03:31:53.611Z,1.93
2023-02-02T03:35:56.177Z,2.33
2023-02-02T03:39:58.226Z,2.33
2023-02-02T03:44:00.202Z,2.34
2023-02-02T03:48:05.872Z,2.31
2023-02-02T03:52:08.058Z,2.43
2023-02-02T03:56:10.657Z,2.46
2023-02-02T04:00:13.287Z,2.49
2023-02-02T04:04:15.694Z,2.78
2023-02-02T04:08:17.697Z,2.80
2023-02-02T04:12:19.731Z,2.56
2023-02-02T04:16:22.312Z,2.76
2023-02-02T04:20:24.606Z,2.77
2023-02-02T04:24:26.547Z,3.02
2023-02-02T04:28:28.906Z,3.09
2023-02-02T04:32:30.843Z,3.08
2023-02-02T04:36:32.465Z,2.85
2023-02-02T04:40:38.860Z,2.93
2023-02-02T04:44:40.912Z,3.02
2023-02-02T04:48:42.969Z,2.97
2023-02-02T04:52:45.099Z,2.87
2023-02-02T04:56:47.202Z,2.79
2023-02-02T05:00:49.232Z,2.96
2023-02-02T05:04:51.326Z,2.98
2023-02-02T05:08:53.270Z,2.95
2023-02-02T05:12:56.013Z,2.94
2023-02-02T05:16:57.997Z,3.12
2023-02-02T05:21:01.677Z,3.03
2023-02-02T05:25:04.066Z,2.98
2023-02-02T05:29:06.771Z,2.94
2023-02-02T05:33:08.679Z,3.00
2023-02-02T05:37:10.681Z,2.98
2023-02-02T05:41:12.631Z,2.94
2023-02-02T05:45:14.963Z,2.84
2023-02-02T05:49:16.963Z,2.96
2023-02-02T05:53:18.971Z,3.07
2023-02-02T05:57:21.001Z,2.93
2023-02-02T06:01:22.900Z,3.09
2023-02-02T06:05:25.503Z,2.95
2023-02-02T06:09:27.526Z,3.00
2023-02-02T06:13:29.524Z,2.95
2023-02-02T06:17:31.544Z,3.16
2023-02-02T06:21:33.577Z,3.14
2023-02-02T06:25:35.638Z,3.06
2023-02-02T06:29:37.631Z,3.06
2023-02-02T06:33:39.225Z,3.21
2023-02-02T06:37:42.127Z,3.24
2023-02-02T06:41:46.584Z,3.21
2023-02-02T06:45:48.574Z,3.38
2023-02-02T06:49:50.538Z,3.10
2023-02-02T06:53:52.506Z,3.12
2023-02-02T06:58:01.556Z,3.36
2023-02-02T07:02:03.679Z,3.47
2023-02-02T07:06:17.343Z,3.48
2023-02-02T07:11:13.485Z,3.32
2023-02-02T07:14:41.266Z,3.22
2023-02-02T07:18:44.577Z,3.26
2023-02-02T07:22:46.531Z,3.15
2023-02-02T07:26:48.603Z,3.23
2023-02-02T07:30:51.023Z,3.07
2023-02-02T07:34:53.036Z,2.96
2023-02-02T07:38:55.188Z,3.10
2023-02-02T07:43:00.554Z,3.22
2023-02-02T07:47:02.583Z,3.09
2023-02-02T07:51:07.600Z,3.34
2023-02-02T07:55:14.742Z,3.20
2023-02-02T07:59:17.229Z,3.23
2023-02-02T08:03:19.551Z,3.16
2023-02-02T08:07:24.554Z,3.20
2023-02-02T08:11:28.090Z,3.35
2023-02-02T08:15:30.288Z,3.39
2023-02-02T08:19:32.367Z,3.34
2023-02-02T08:23:36.517Z,3.47
2023-02-02T08:27:38.444Z,3.52
2023-02-02T08:31:42.055Z,3.48
2023-02-02T08:35:44.560Z,3.42
2023-02-02T08:39:46.600Z,3.29
2023-02-02T08:43:49.765Z,3.28
2023-02-02T08:48:09.337Z,3.19
2023-02-02T08:52:13.225Z,3.36
2023-02-02T08:56:18.561Z,3.20
2023-02-02T09:00:21.009Z,3.15
2023-02-02T09:04:22.947Z,3.17
2023-02-02T09:08:24.966Z,3.09
2023-02-02T09:12:27.247Z,3.11
2023-02-02T09:16:29.936Z,3.16
2023-02-02T09:20:32.307Z,3.07
2023-02-02T09:24:34.305Z,3.08
2023-02-02T09:28:38.949Z,3.05
2023-02-02T09:32:41.324Z,3.23
2023-02-02T09:36:44.773Z,3.37
2023-02-02T09:40:47.540Z,3.48
2023-02-02T09:45:07.549Z,3.13
2023-02-02T09:49:17.134Z,3.23
2023-02-02T09:53:46.054Z,3.11
2023-02-02T09:58:13.668Z,3.04
2023-02-02T10:02:25.094Z,3.15
2023-02-02T10:06:47.684Z,3.28
2023-02-02T10:10:50.816Z,3.41
2023-02-02T10:14:58.353Z,3.46
2023-02-02T10:19:09.874Z,3.44
2023-02-02T10:23:37.875Z,3.45
2023-02-02T10:27:41.297Z,3.58
2023-02-02T10:32:04.423Z,3.61
2023-02-02T10:36:26.804Z,3.81
2023-02-02T10:40:44.075Z,3.64
2023-02-02T10:45:00.456Z,3.73
2023-02-02T10:49:14.661Z,3.62
2023-02-02T10:53:20.566Z,3.59
2023-02-02T10:57:31.364Z,3.62
2023-02-02T11:01:33.497Z,3.52
2023-02-02T11:05:55.129Z,3.39
2023-02-02T11:09:57.172Z,3.33
2023-02-02T11:14:08.199Z,3.44
2023-02-02T11:18:30.491Z,3.50
2023-02-02T11:22:35.295Z,3.36
2023-02-02T11:27:14.101Z,3.19
2023-02-02T11:31:32.543Z,3.09
2023-02-02T11:35:34.677Z,2.85
2023-02-02T11:39:36.706Z,3.04
2023-02-02T11:43:49.186Z,3.34
2023-02-02T11:47:52.252Z,3.28
2023-02-02T11:52:00.344Z,3.38
2023-02-02T11:56:08.054Z,3.80
2023-02-02T12:00:10.113Z,3.59
2023-02-02T12:04:16.075Z,3.78
2023-02-02T12:08:19.042Z,3.83
2023-02-02T12:12:39.120Z,3.80
2023-02-02T12:16:58.022Z,3.97
2023-02-02T12:21:21.531Z,3.86
2023-02-02T12:25:29.563Z,3.76
2023-02-02T12:29:43.587Z,3.85
2023-02-02T12:33:51.844Z,3.74
2023-02-02T12:38:32.479Z,3.70
2023-02-02T12:42:48.704Z,3.78
2023-02-02T12:47:27.271Z,3.76
2023-02-02T12:51:35.389Z,3.49
2023-02-02T12:55:52.440Z,3.61
2023-02-02T13:00:07.204Z,3.68
2023-02-02T13:04:27.452Z,3.56
2023-02-02T13:08:42.786Z,3.32
2023-02-02T13:12:53.811Z,3.45
2023-02-02T13:17:09.860Z,3.39
2023-02-02T13:21:16.825Z,3.48
2023-02-02T13:25:25.455Z,3.51
2023-02-02T13:29:48.159Z,3.52
2023-02-02T13:34:03.552Z,3.56
2023-02-02T13:38:25.154Z,3.39
2023-02-02T13:42:32.897Z,3.58
2023-02-02T13:47:09.588Z,3.47
2023-02-02T13:51:53.830Z,3.51
2023-02-02T13:56:14.015Z,3.59
2023-02-02T14:00:20.525Z,3.61
2023-02-02T14:04:27.439Z,3.80
2023-02-02T14:08:31.372Z,3.88
2023-02-02T14:12:35.550Z,3.90
2023-02-02T14:16:37.480Z,3.79
2023-02-02T14:20:46.698Z,3.85
2023-02-02T14:24:50.610Z,3.76
2023-02-02T14:28:52.637Z,3.82
2023-02-02T14:33:20.350Z,3.83
2023-02-02T14:37:25.360Z,3.74
2023-02-02T14:41:53.116Z,3.69
2023-02-02T14:46:07.585Z,3.74
2023-02-02T14:50:15.916Z,3.66
2023-02-02T14:54:24.427Z,3.67
2023-02-02T14:58:32.043Z,3.66
2023-02-02T15:02:37.996Z,3.73
2023-02-02T15:06:42.399Z,3.73
2023-02-02T15:10:52.011Z,3.85
2023-02-02T15:15:08.155Z,3.67
2023-02-02T15:19:28.528Z,3.73
2023-02-02T15:23:36.100Z,3.83
2023-02-02T15:27:51.531Z,3.67
2023-02-02T15:32:00.364Z,3.72
2023-02-02T15:36:18.507Z,3.73
2023-02-02T15:40:24.365Z,3.71
2023-02-02T15:44:28.420Z,3.62
2023-02-02T15:48:32.468Z,3.47
2023-02-02T15:52:37.891Z,3.42
2023-02-02T15:56:39.822Z,3.03
2023-02-02T16:00:41.852Z,2.98
2023-02-02T16:04:43.955Z,2.88
2023-02-02T16:08:47.643Z,2.89
2023-02-02T16:12:49.734Z,2.81
2023-02-02T16:16:52.565Z,2.73
2023-02-02T16:20:57.878Z,2.53
2023-02-02T16:25:06.014Z,2.63
2023-02-02T16:29:18.442Z,2.63
2023-02-02T16:33:45.574Z,2.62
2023-02-02T16:37:47.547Z,2.65
2023-02-02T16:41:50.805Z,2.73
2023-02-02T16:45:56.631Z,2.59
2023-02-02T16:50:07.763Z,2.60
2023-02-02T16:54:09.674Z,2.49
2023-02-02T16:58:18.265Z,2.63
2023-02-02T17:02:30.481Z,2.79
2023-02-02T17:06:50.432Z,2.56
2023-02-02T17:11:26.281Z,2.58
2023-02-02T17:15:35.699Z,2.58
2023-02-02T17:19:37.816Z,2.51
2023-02-02T17:23:41.078Z,2.43
2023-02-02T17:27:44.112Z,2.46
2023-02-02T17:31:46.235Z,2.46
2023-02-02T17:35:55.866Z,2.60
2023-02-02T17:39:58.270Z,2.43
2023-02-02T17:44:00.487Z,2.44
2023-02-02T17:48:03.846Z,2.72
2023-02-02T17:52:05.818Z,2.60
2023-02-02T17:56:07.876Z,2.55
2023-02-02T18:00:10.655Z,2.44
2023-02-02T18:04:14.907Z,2.50
2023-02-02T18:08:17.126Z,2.63
2023-02-02T18:12:19.839Z,2.53
2023-02-02T18:16:22.408Z,2.53
2023-02-02T18:20:24.702Z,2.77
2023-02-02T18:24:26.892Z,2.60
2023-02-02T18:28:28.812Z,2.61
2023-02-02T18:32:30.854Z,2.45
2023-02-02T18:36:34.049Z,2.66
2023-02-02T18:40:36.087Z,2.60
2023-02-02T18:44:38.770Z,2.60
2023-02-02T18:48:42.215Z,2.64
2023-02-02T18:52:44.523Z,2.66
2023-02-02T18:56:46.495Z,2.63
2023-02-02T19:00:49.299Z,2.53
2023-02-02T19:05:09.963Z,2.59
2023-02-02T19:09:17.309Z,2.58
2023-02-02T19:13:21.650Z,2.51
2023-02-02T19:17:24.636Z,2.48
2023-02-02T19:21:30.326Z,2.49
2023-02-02T19:25:32.571Z,2.66
2023-02-02T19:29:36.092Z,2.61
2023-02-02T19:33:40.526Z,2.43
2023-02-02T19:37:43.300Z,2.56
2023-02-02T19:41:45.373Z,2.57
2023-02-02T19:45:47.540Z,2.52
2023-02-02T19:49:49.641Z,2.52
2023-02-02T19:53:59.387Z,2.39
2023-02-02T19:58:13.038Z,2.06
2023-02-02T20:02:54.199Z,2.06
2023-02-02T20:06:59.659Z,2.00
2023-02-02T20:11:31.859Z,2.06
2023-02-02T20:15:36.169Z,2.18
2023-02-02T20:19:41.723Z,2.03
2023-02-02T20:23:45.432Z,2.00
2023-02-02T20:27:47.442Z,2.23
2023-02-02T20:31:52.672Z,2.21
2023-02-02T20:35:55.009Z,1.94
2023-02-02T20:39:58.769Z,2.07
2023-02-02T20:44:00.721Z,1.94
2023-02-02T20:48:02.767Z,1.85
2023-02-02T20:52:10.723Z,1.74
2023-02-02T20:56:12.758Z,1.79
2023-02-02T21:00:16.737Z,1.85
2023-02-02T21:04:19.648Z,1.90
2023-02-02T21:08:21.596Z,1.76
2023-02-02T21:12:25.559Z,1.77
2023-02-02T21:16:28.719Z,1.68
2023-02-02T21:20:30.714Z,1.61
2023-02-02T21:24:32.641Z,1.55
2023-02-02T21:28:34.579Z,1.55
2023-02-02T21:32:36.969Z,1.49
2023-02-02T21:36:44.459Z,1.52
2023-02-02T21:40:47.907Z,1.50
2023-02-02T21:45:07.348Z,1.41
2023-02-02T21:49:25.386Z,1.50
2023-02-02T21:53:27.609Z,1.32
2023-02-02T21:57:37.047Z,1.30
2023-02-02T22:01:40.223Z,1.21
2023-02-02T22:05:42.546Z,1.00
2023-02-02T22:09:45.603Z,0.96
2023-02-02T22:13:48.864Z,0.94
2023-02-02T22:17:51.053Z,0.83
2023-02-02T22:21:55.082Z,0.75
2023-02-02T22:25:58.565Z,0.74
2023-02-02T22:30:20.990Z,0.76
2023-02-02T22:34:23.258Z,0.77
2023-02-02T22:38:25.770Z,0.95
2023-02-02T22:42:28.021Z,0.79
2023-02-02T22:46:30.191Z,0.87
2023-02-02T22:50:34.917Z,0.82
2023-02-02T22:54:37.114Z,0.74
2023-02-02T22:58:39.298Z,0.86
2023-02-02T23:02:42.235Z,0.70
2023-02-02T23:06:44.674Z,0.78
2023-02-02T23:10:46.660Z,0.73
2023-02-02T23:14:48.757Z,0.71
2023-02-02T23:18:50.803Z,0.74
2023-02-02T23:22:52.951Z,0.87
2023-02-02T23:26:55.138Z,0.77
2023-02-02T23:30:59.328Z,0.83
2023-02-02T23:35:01.706Z,0.91
2023-02-02T23:39:03.940Z,0.84
2023-02-02T23:43:06.001Z,0.82
2023-02-02T23:47:08.582Z,0.81
2023-02-02T23:51:11.495Z,0.88
2023-02-02T23:55:14.982Z,0.88
2023-02-02T23:59:17.205Z,0.86
